Terminal Aerodrome Forecast
Issued by NWS Sioux Falls, SD

Home | Current Version | Previous Version | Text Only | Print | Product List | Glossary Off
Versions: 1 2 3 4 5 6 7 8 9 10 11 12 13 14 15 16

000
FTUS43 KFSD 180537
TAFFSD
TAF
KFSD 180537Z 1806/1906 06004KT P6SM SCT200
     FM181000 11005KT 6SM BR SCT010
     FM181400 15009KT P6SM BKN015
     FM181700 16014G21KT P6SM SCT015 SCT120=

USA.gov is the U.S. government's official web portal to all federal, state and local government web resources and services.